sensor_id;sensor_type;location;lat;lon;timestamp;pressure;altitude;pressure_sealevel;temperature;humidity
44313;BME280;38833;51.142;-0.974;2023-12-22T00:00:23;99745.98;;;27.11;29.35
44313;BME280;38833;51.142;-0.974;2023-12-22T00:02:57;99746.15;;;27.11;29.33
44313;BME280;38833;51.142;-0.974;2023-12-22T00:05:31;99745.88;;;27.39;29.33
44313;BME280;38833;51.142;-0.974;2023-12-22T00:08:05;99750.28;;;27.35;29.36
44313;BME280;38833;51.142;-0.974;2023-12-22T00:10:38;99749.24;;;27.50;29.42
44313;BME280;38833;51.142;-0.974;2023-12-22T00:13:12;99750.68;;;27.21;29.48
44313;BME280;38833;51.142;-0.974;2023-12-22T00:15:45;99751.49;;;27.29;29.61
44313;BME280;38833;51.142;-0.974;2023-12-22T00:18:19;99749.37;;;27.18;29.49
44313;BME280;38833;51.142;-0.974;2023-12-22T00:20:52;99754.44;;;26.84;29.53
44313;BME280;38833;51.142;-0.974;2023-12-22T00:23:25;99760.35;;;26.83;29.53
44313;BME280;38833;51.142;-0.974;2023-12-22T00:25:59;99764.90;;;27.21;29.60
44313;BME280;38833;51.142;-0.974;2023-12-22T00:28:32;99761.04;;;27.13;29.68
44313;BME280;38833;51.142;-0.974;2023-12-22T00:31:05;99757.72;;;26.94;29.64
44313;BME280;38833;51.142;-0.974;2023-12-22T00:33:40;99755.05;;;27.08;29.71
44313;BME280;38833;51.142;-0.974;2023-12-22T00:36:13;99755.65;;;26.88;29.67
44313;BME280;38833;51.142;-0.974;2023-12-22T00:38:47;99757.20;;;27.02;29.72
44313;BME280;38833;51.142;-0.974;2023-12-22T00:41:20;99763.12;;;26.78;29.70
44313;BME280;38833;51.142;-0.974;2023-12-22T00:43:54;99758.22;;;26.71;29.78
44313;BME280;38833;51.142;-0.974;2023-12-22T00:46:28;99747.51;;;26.67;29.82
44313;BME280;38833;51.142;-0.974;2023-12-22T00:49:01;99747.39;;;26.87;29.81
44313;BME280;38833;51.142;-0.974;2023-12-22T00:51:34;99744.57;;;26.79;29.87
44313;BME280;38833;51.142;-0.974;2023-12-22T00:54:08;99744.73;;;26.56;29.86
44313;BME280;38833;51.142;-0.974;2023-12-22T00:56:41;99750.18;;;26.66;29.96
44313;BME280;38833;51.142;-0.974;2023-12-22T00:59:14;99747.34;;;26.62;29.99
44313;BME280;38833;51.142;-0.974;2023-12-22T01:01:48;99743.36;;;26.78;30.05
44313;BME280;38833;51.142;-0.974;2023-12-22T01:04:21;99746.51;;;26.49;30.10
44313;BME280;38833;51.142;-0.974;2023-12-22T01:06:54;99749.82;;;26.47;30.10
44313;BME280;38833;51.142;-0.974;2023-12-22T01:09:27;99744.82;;;26.47;30.10
44313;BME280;38833;51.142;-0.974;2023-12-22T01:12:01;99756.87;;;26.44;30.09
44313;BME280;38833;51.142;-0.974;2023-12-22T01:14:34;99758.45;;;26.35;30.15
44313;BME280;38833;51.142;-0.974;2023-12-22T01:17:07;99762.11;;;26.34;30.18
44313;BME280;38833;51.142;-0.974;2023-12-22T01:19:41;99755.25;;;26.26;30.24
44313;BME280;38833;51.142;-0.974;2023-12-22T01:22:14;99751.00;;;26.33;30.14
44313;BME280;38833;51.142;-0.974;2023-12-22T01:24:47;99741.98;;;26.27;30.17
44313;BME280;38833;51.142;-0.974;2023-12-22T01:27:21;99740.40;;;26.26;30.16
44313;BME280;38833;51.142;-0.974;2023-12-22T01:29:54;99741.12;;;26.47;30.15
44313;BME280;38833;51.142;-0.974;2023-12-22T01:32:27;99746.52;;;26.22;30.18
44313;BME280;38833;51.142;-0.974;2023-12-22T01:35:01;99740.94;;;26.06;30.33
44313;BME280;38833;51.142;-0.974;2023-12-22T01:37:34;99736.74;;;26.08;30.27
44313;BME280;38833;51.142;-0.974;2023-12-22T01:40:08;99738.76;;;26.11;30.24
44313;BME280;38833;51.142;-0.974;2023-12-22T01:42:41;99744.70;;;26.07;30.25
44313;BME280;38833;51.142;-0.974;2023-12-22T01:45:15;99735.31;;;26.11;30.25
44313;BME280;38833;51.142;-0.974;2023-12-22T01:47:49;99737.14;;;26.21;30.33
44313;BME280;38833;51.142;-0.974;2023-12-22T01:50:22;99733.84;;;25.88;30.44
44313;BME280;38833;51.142;-0.974;2023-12-22T01:52:57;99732.26;;;25.88;30.39
44313;BME280;38833;51.142;-0.974;2023-12-22T01:55:30;99736.01;;;25.84;30.43
44313;BME280;38833;51.142;-0.974;2023-12-22T01:58:04;99733.71;;;25.86;30.41
44313;BME280;38833;51.142;-0.974;2023-12-22T02:00:38;99737.35;;;26.27;30.47
44313;BME280;38833;51.142;-0.974;2023-12-22T02:03:11;99739.97;;;26.04;30.42
44313;BME280;38833;51.142;-0.974;2023-12-22T02:05:46;99739.14;;;26.27;30.44
44313;BME280;38833;51.142;-0.974;2023-12-22T02:08:21;99737.70;;;26.04;30.39
44313;BME280;38833;51.142;-0.974;2023-12-22T02:10:56;99738.55;;;25.93;30.46
44313;BME280;38833;51.142;-0.974;2023-12-22T02:13:29;99741.47;;;25.95;30.45
44313;BME280;38833;51.142;-0.974;2023-12-22T02:16:08;99736.23;;;25.84;30.52
44313;BME280;38833;51.142;-0.974;2023-12-22T02:18:47;99729.70;;;25.64;30.49
44313;BME280;38833;51.142;-0.974;2023-12-22T02:21:22;99727.80;;;25.81;30.54
44313;BME280;38833;51.142;-0.974;2023-12-22T02:23:55;99727.76;;;25.71;30.62
44313;BME280;38833;51.142;-0.974;2023-12-22T02:26:33;99722.72;;;25.46;30.63
44313;BME280;38833;51.142;-0.974;2023-12-22T02:29:10;99719.64;;;25.97;30.62
44313;BME280;38833;51.142;-0.974;2023-12-22T02:31:49;99716.11;;;25.67;30.63
44313;BME280;38833;51.142;-0.974;2023-12-22T02:34:25;99720.65;;;25.89;30.68
44313;BME280;38833;51.142;-0.974;2023-12-22T02:36:59;99720.51;;;25.67;30.63
44313;BME280;38833;51.142;-0.974;2023-12-22T02:39:33;99720.57;;;25.61;30.66
44313;BME280;38833;51.142;-0.974;2023-12-22T02:42:06;99718.17;;;25.61;30.63
44313;BME280;38833;51.142;-0.974;2023-12-22T02:44:40;99713.64;;;25.76;30.74
44313;BME280;38833;51.142;-0.974;2023-12-22T02:47:13;99706.41;;;26.20;30.74
44313;BME280;38833;51.142;-0.974;2023-12-22T02:49:47;99711.25;;;25.46;30.75
44313;BME280;38833;51.142;-0.974;2023-12-22T02:52:20;99707.81;;;25.79;30.65
44313;BME280;38833;51.142;-0.974;2023-12-22T02:54:54;99712.89;;;25.41;30.78
44313;BME280;38833;51.142;-0.974;2023-12-22T02:57:53;99710.76;;;25.45;30.70
44313;BME280;38833;51.142;-0.974;2023-12-22T03:00:26;99715.15;;;25.77;30.62
44313;BME280;38833;51.142;-0.974;2023-12-22T03:02:59;99713.17;;;25.48;30.63
44313;BME280;38833;51.142;-0.974;2023-12-22T03:05:33;99704.38;;;25.80;30.58
44313;BME280;38833;51.142;-0.974;2023-12-22T03:08:06;99689.71;;;25.44;30.66
44313;BME280;38833;51.142;-0.974;2023-12-22T03:10:40;99701.24;;;25.32;30.77
44313;BME280;38833;51.142;-0.974;2023-12-22T03:13:13;99690.81;;;25.65;30.70
44313;BME280;38833;51.142;-0.974;2023-12-22T03:15:47;99688.31;;;25.57;30.76
44313;BME280;38833;51.142;-0.974;2023-12-22T03:18:20;99690.79;;;25.34;30.70
44313;BME280;38833;51.142;-0.974;2023-12-22T03:20:53;99687.29;;;25.58;30.71
44313;BME280;38833;51.142;-0.974;2023-12-22T03:23:27;99680.04;;;25.56;30.70
44313;BME280;38833;51.142;-0.974;2023-12-22T03:26:03;99680.84;;;25.55;30.71
44313;BME280;38833;51.142;-0.974;2023-12-22T03:28:37;99679.82;;;25.14;30.84
44313;BME280;38833;51.142;-0.974;2023-12-22T03:31:10;99676.47;;;25.43;30.82
44313;BME280;38833;51.142;-0.974;2023-12-22T03:33:43;99687.98;;;25.41;30.81
44313;BME280;38833;51.142;-0.974;2023-12-22T03:36:17;99685.14;;;25.40;30.81
44313;BME280;38833;51.142;-0.974;2023-12-22T03:38:50;99682.71;;;25.42;30.77
44313;BME280;38833;51.142;-0.974;2023-12-22T03:41:23;99684.79;;;25.38;30.79
44313;BME280;38833;51.142;-0.974;2023-12-22T03:43:57;99678.87;;;25.27;30.90
44313;BME280;38833;51.142;-0.974;2023-12-22T03:46:31;99686.21;;;25.37;30.78
44313;BME280;38833;51.142;-0.974;2023-12-22T03:49:04;99686.61;;;25.26;30.87
44313;BME280;38833;51.142;-0.974;2023-12-22T03:51:38;99674.24;;;25.23;30.89
44313;BME280;38833;51.142;-0.974;2023-12-22T03:54:11;99682.19;;;25.28;30.83
44313;BME280;38833;51.142;-0.974;2023-12-22T03:56:45;99673.14;;;25.29;30.80
44313;BME280;38833;51.142;-0.974;2023-12-22T03:59:18;99680.48;;;25.00;30.82
44313;BME280;38833;51.142;-0.974;2023-12-22T04:01:51;99687.60;;;25.16;30.39
44313;BME280;38833;51.142;-0.974;2023-12-22T04:04:24;99684.31;;;25.40;30.12
44313;BME280;38833;51.142;-0.974;2023-12-22T04:06:58;99672.03;;;25.45;30.01
44313;BME280;38833;51.142;-0.974;2023-12-22T04:09:31;99672.46;;;25.50;29.90
44313;BME280;38833;51.142;-0.974;2023-12-22T04:12:05;99666.18;;;25.62;30.32
44313;BME280;38833;51.142;-0.974;2023-12-22T04:14:39;99675.61;;;25.20;30.47
44313;BME280;38833;51.142;-0.974;2023-12-22T04:17:12;99664.77;;;25.30;30.66
44313;BME280;38833;51.142;-0.974;2023-12-22T04:19:46;99674.60;;;25.25;30.73
44313;BME280;38833;51.142;-0.974;2023-12-22T04:22:20;99686.40;;;25.16;30.78
44313;BME280;38833;51.142;-0.974;2023-12-22T04:24:53;99684.04;;;25.36;30.80
44313;BME280;38833;51.142;-0.974;2023-12-22T04:27:26;99684.03;;;25.02;30.93
44313;BME280;38833;51.142;-0.974;2023-12-22T04:29:59;99681.80;;;25.02;30.92
44313;BME280;38833;51.142;-0.974;2023-12-22T04:32:33;99677.38;;;25.03;30.88
44313;BME280;38833;51.142;-0.974;2023-12-22T04:35:06;99681.32;;;25.03;30.91
44313;BME280;38833;51.142;-0.974;2023-12-22T04:37:40;99674.89;;;24.92;30.98
44313;BME280;38833;51.142;-0.974;2023-12-22T04:40:13;99673.19;;;24.91;30.97
44313;BME280;38833;51.142;-0.974;2023-12-22T04:42:47;99674.65;;;24.87;30.98
44313;BME280;38833;51.142;-0.974;2023-12-22T04:45:20;99683.14;;;24.79;31.07
44313;BME280;38833;51.142;-0.974;2023-12-22T04:47:53;99684.04;;;24.86;30.98
44313;BME280;38833;51.142;-0.974;2023-12-22T04:50:26;99678.72;;;24.78;31.06
44313;BME280;38833;51.142;-0.974;2023-12-22T04:53:00;99672.96;;;24.83;30.99
44313;BME280;38833;51.142;-0.974;2023-12-22T04:55:33;99672.95;;;24.98;31.05
44313;BME280;38833;51.142;-0.974;2023-12-22T04:58:06;99662.74;;;24.46;31.08
44313;BME280;38833;51.142;-0.974;2023-12-22T05:00:40;99662.63;;;24.88;31.13
44313;BME280;38833;51.142;-0.974;2023-12-22T05:03:13;99662.07;;;24.64;31.15
44313;BME280;38833;51.142;-0.974;2023-12-22T05:05:46;99658.61;;;24.95;31.03
44313;BME280;38833;51.142;-0.974;2023-12-22T05:08:20;99655.83;;;25.13;31.07
44313;BME280;38833;51.142;-0.974;2023-12-22T05:10:53;99653.98;;;25.09;31.07
44313;BME280;38833;51.142;-0.974;2023-12-22T05:13:27;99653.95;;;24.65;31.10
44313;BME280;38833;51.142;-0.974;2023-12-22T05:16:00;99661.71;;;24.81;31.14
44313;BME280;38833;51.142;-0.974;2023-12-22T05:18:33;99652.43;;;24.94;31.22
44313;BME280;38833;51.142;-0.974;2023-12-22T05:21:07;99660.54;;;25.04;31.14
44313;BME280;38833;51.142;-0.974;2023-12-22T05:23:41;99651.60;;;25.08;31.06
44313;BME280;38833;51.142;-0.974;2023-12-22T05:26:17;99651.16;;;24.81;31.07
44313;BME280;38833;51.142;-0.974;2023-12-22T05:28:51;99647.52;;;24.97;31.14
44313;BME280;38833;51.142;-0.974;2023-12-22T05:31:25;99665.43;;;24.69;31.18
44313;BME280;38833;51.142;-0.974;2023-12-22T05:33:58;99660.63;;;24.69;31.18
44313;BME280;38833;51.142;-0.974;2023-12-22T05:36:32;99657.39;;;24.92;31.13
44313;BME280;38833;51.142;-0.974;2023-12-22T05:39:05;99655.83;;;24.83;31.24
44313;BME280;38833;51.142;-0.974;2023-12-22T05:41:38;99673.99;;;24.96;31.11
44313;BME280;38833;51.142;-0.974;2023-12-22T05:44:12;99656.33;;;24.14;31.91
44313;BME280;38833;51.142;-0.974;2023-12-22T05:46:46;99666.17;;;24.82;31.46
44313;BME280;38833;51.142;-0.974;2023-12-22T05:49:19;99666.25;;;24.81;31.54
44313;BME280;38833;51.142;-0.974;2023-12-22T05:51:53;99670.74;;;24.46;31.77
44313;BME280;38833;51.142;-0.974;2023-12-22T05:54:26;99667.16;;;24.97;31.56
44313;BME280;38833;51.142;-0.974;2023-12-22T05:57:00;99668.20;;;24.64;31.55
44313;BME280;38833;51.142;-0.974;2023-12-22T05:59:33;99673.64;;;25.22;31.46
44313;BME280;38833;51.142;-0.974;2023-12-22T06:02:07;99678.45;;;25.18;31.36
44313;BME280;38833;51.142;-0.974;2023-12-22T06:04:40;99672.31;;;25.45;31.18
44313;BME280;38833;51.142;-0.974;2023-12-22T06:07:55;99673.19;;;25.28;30.95
44313;BME280;38833;51.142;-0.974;2023-12-22T06:10:28;99677.16;;;25.62;30.97
44313;BME280;38833;51.142;-0.974;2023-12-22T06:13:01;99684.79;;;25.80;30.81
44313;BME280;38833;51.142;-0.974;2023-12-22T06:15:35;99671.28;;;25.93;30.77
44313;BME280;38833;51.142;-0.974;2023-12-22T06:18:08;99664.04;;;26.01;30.77
44313;BME280;38833;51.142;-0.974;2023-12-22T06:20:42;99665.42;;;26.24;30.57
44313;BME280;38833;51.142;-0.974;2023-12-22T06:23:15;99660.01;;;26.45;30.41
44313;BME280;38833;51.142;-0.974;2023-12-22T06:25:49;99668.67;;;26.17;30.50
44313;BME280;38833;51.142;-0.974;2023-12-22T06:28:22;99669.04;;;26.20;30.51
44313;BME280;38833;51.142;-0.974;2023-12-22T06:30:55;99663.54;;;26.26;30.28
44313;BME280;38833;51.142;-0.974;2023-12-22T06:33:29;99660.38;;;26.96;30.11
44313;BME280;38833;51.142;-0.974;2023-12-22T06:36:03;99664.64;;;26.47;30.20
44313;BME280;38833;51.142;-0.974;2023-12-22T06:38:36;99666.34;;;26.71;29.97
44313;BME280;38833;51.142;-0.974;2023-12-22T06:41:19;99662.88;;;26.62;30.11
44313;BME280;38833;51.142;-0.974;2023-12-22T06:43:53;99669.56;;;26.75;30.03
44313;BME280;38833;51.142;-0.974;2023-12-22T06:46:27;99674.86;;;27.04;29.79
44313;BME280;38833;51.142;-0.974;2023-12-22T06:49:01;99682.59;;;27.63;29.72
44313;BME280;38833;51.142;-0.974;2023-12-22T06:51:34;99692.73;;;26.93;29.99
44313;BME280;38833;51.142;-0.974;2023-12-22T06:54:08;99691.69;;;27.25;29.94
44313;BME280;38833;51.142;-0.974;2023-12-22T06:56:41;99695.34;;;27.15;29.86
44313;BME280;38833;51.142;-0.974;2023-12-22T06:59:15;99689.92;;;27.03;30.01
44313;BME280;38833;51.142;-0.974;2023-12-22T07:01:48;99693.19;;;26.99;30.06
44313;BME280;38833;51.142;-0.974;2023-12-22T07:04:21;99692.57;;;27.33;29.74
44313;BME280;38833;51.142;-0.974;2023-12-22T07:06:54;99694.84;;;27.11;29.99
44313;BME280;38833;51.142;-0.974;2023-12-22T07:09:35;99697.19;;;27.07;30.04
44313;BME280;38833;51.142;-0.974;2023-12-22T07:12:08;99702.90;;;27.37;29.77
44313;BME280;38833;51.142;-0.974;2023-12-22T07:14:41;99704.58;;;26.10;30.57
44313;BME280;38833;51.142;-0.974;2023-12-22T07:17:15;99709.44;;;26.92;30.32
44313;BME280;38833;51.142;-0.974;2023-12-22T07:19:48;99713.03;;;26.85;30.39
44313;BME280;38833;51.142;-0.974;2023-12-22T07:22:22;99724.69;;;26.58;30.49
44313;BME280;38833;51.142;-0.974;2023-12-22T07:24:55;99724.40;;;27.27;30.00
44313;BME280;38833;51.142;-0.974;2023-12-22T07:27:28;99711.04;;;26.80;30.26
44313;BME280;38833;51.142;-0.974;2023-12-22T07:30:02;99713.44;;;26.96;30.11
44313;BME280;38833;51.142;-0.974;2023-12-22T07:32:35;99725.83;;;26.65;30.17
44313;BME280;38833;51.142;-0.974;2023-12-22T07:35:09;99729.14;;;26.91;30.16
44313;BME280;38833;51.142;-0.974;2023-12-22T07:51:01;99728.82;;;27.05;30.06
44313;BME280;38833;51.142;-0.974;2023-12-22T07:53:34;99732.76;;;26.61;30.17
44313;BME280;38833;51.142;-0.974;2023-12-22T07:56:08;99730.01;;;26.47;30.38
44313;BME280;38833;51.142;-0.974;2023-12-22T07:58:41;99731.48;;;27.04;29.80
44313;BME280;38833;51.142;-0.974;2023-12-22T08:01:15;99734.87;;;27.47;29.91
44313;BME280;38833;51.142;-0.974;2023-12-22T08:03:48;99745.26;;;26.55;30.36
44313;BME280;38833;51.142;-0.974;2023-12-22T08:06:21;99742.46;;;27.24;30.15
44313;BME280;38833;51.142;-0.974;2023-12-22T08:08:54;99748.00;;;26.67;30.27
44313;BME280;38833;51.142;-0.974;2023-12-22T08:11:28;99752.59;;;26.88;30.09
44313;BME280;38833;51.142;-0.974;2023-12-22T08:14:01;99759.00;;;26.87;29.99
44313;BME280;38833;51.142;-0.974;2023-12-22T08:16:35;99755.31;;;27.66;29.78
44313;BME280;38833;51.142;-0.974;2023-12-22T08:19:08;99757.50;;;27.71;29.62
44313;BME280;38833;51.142;-0.974;2023-12-22T08:21:42;99769.16;;;27.85;29.56
44313;BME280;38833;51.142;-0.974;2023-12-22T08:24:16;99758.10;;;27.78;29.48
44313;BME280;38833;51.142;-0.974;2023-12-22T08:26:49;99752.79;;;27.82;29.19
44313;BME280;38833;51.142;-0.974;2023-12-22T08:29:23;99760.50;;;27.87;28.94
44313;BME280;38833;51.142;-0.974;2023-12-22T08:31:56;99761.28;;;27.97;28.69
44313;BME280;38833;51.142;-0.974;2023-12-22T08:34:30;99764.23;;;27.92;28.61
44313;BME280;38833;51.142;-0.974;2023-12-22T08:37:03;99764.79;;;28.24;28.40
44313;BME280;38833;51.142;-0.974;2023-12-22T08:39:36;99765.68;;;27.87;28.25
44313;BME280;38833;51.142;-0.974;2023-12-22T08:42:10;99775.68;;;27.88;28.22
44313;BME280;38833;51.142;-0.974;2023-12-22T08:44:43;99777.11;;;28.15;28.26
44313;BME280;38833;51.142;-0.974;2023-12-22T08:47:17;99781.10;;;27.83;28.30
44313;BME280;38833;51.142;-0.974;2023-12-22T08:49:53;99783.11;;;27.89;28.20
44313;BME280;38833;51.142;-0.974;2023-12-22T08:52:26;99784.37;;;27.80;28.25
44313;BME280;38833;51.142;-0.974;2023-12-22T08:54:59;99783.24;;;27.83;28.22
44313;BME280;38833;51.142;-0.974;2023-12-22T08:57:33;99793.23;;;27.96;28.18
44313;BME280;38833;51.142;-0.974;2023-12-22T09:00:07;99795.68;;;27.70;28.40
44313;BME280;38833;51.142;-0.974;2023-12-22T09:02:41;99801.07;;;27.72;28.75
44313;BME280;38833;51.142;-0.974;2023-12-22T09:05:14;99798.67;;;27.74;28.81
44313;BME280;38833;51.142;-0.974;2023-12-22T09:07:48;99804.21;;;27.83;28.97
44313;BME280;38833;51.142;-0.974;2023-12-22T09:10:21;99806.63;;;27.75;29.24
44313;BME280;38833;51.142;-0.974;2023-12-22T09:12:55;99802.82;;;27.87;29.41
44313;BME280;38833;51.142;-0.974;2023-12-22T09:15:28;99804.64;;;27.80;29.54
44313;BME280;38833;51.142;-0.974;2023-12-22T09:18:01;99807.74;;;27.84;29.77
44313;BME280;38833;51.142;-0.974;2023-12-22T09:20:35;99811.03;;;27.93;29.82
44313;BME280;38833;51.142;-0.974;2023-12-22T09:23:08;99802.61;;;27.86;30.12
44313;BME280;38833;51.142;-0.974;2023-12-22T09:25:42;99793.92;;;27.96;30.07
44313;BME280;38833;51.142;-0.974;2023-12-22T09:28:15;99812.78;;;28.00;30.16
44313;BME280;38833;51.142;-0.974;2023-12-22T09:30:48;99817.15;;;28.02;30.23
44313;BME280;38833;51.142;-0.974;2023-12-22T09:33:22;99815.05;;;28.00;30.44
44313;BME280;38833;51.142;-0.974;2023-12-22T09:35:55;99819.55;;;28.10;30.21
44313;BME280;38833;51.142;-0.974;2023-12-22T09:38:29;99814.37;;;28.34;28.87
44313;BME280;38833;51.142;-0.974;2023-12-22T09:41:02;99820.91;;;28.17;28.49
44313;BME280;38833;51.142;-0.974;2023-12-22T09:43:36;99825.49;;;27.99;28.38
44313;BME280;38833;51.142;-0.974;2023-12-22T09:46:10;99836.44;;;28.06;28.20
44313;BME280;38833;51.142;-0.974;2023-12-22T09:48:45;99834.98;;;28.37;28.00
44313;BME280;38833;51.142;-0.974;2023-12-22T09:51:19;99837.71;;;27.92;28.20
44313;BME280;38833;51.142;-0.974;2023-12-22T09:53:54;99861.14;;;27.91;28.20
44313;BME280;38833;51.142;-0.974;2023-12-22T09:56:30;99849.33;;;28.02;28.32
44313;BME280;38833;51.142;-0.974;2023-12-22T09:59:04;99850.54;;;27.85;28.14
44313;BME280;38833;51.142;-0.974;2023-12-22T10:01:38;99848.93;;;27.99;28.22
44313;BME280;38833;51.142;-0.974;2023-12-22T10:04:13;99848.35;;;28.15;28.01
44313;BME280;38833;51.142;-0.974;2023-12-22T10:06:48;99859.11;;;27.77;27.92
44313;BME280;38833;51.142;-0.974;2023-12-22T10:09:22;99853.59;;;27.62;27.87
44313;BME280;38833;51.142;-0.974;2023-12-22T10:11:55;99847.97;;;27.51;27.80
44313;BME280;38833;51.142;-0.974;2023-12-22T10:14:31;99850.36;;;27.64;27.95
44313;BME280;38833;51.142;-0.974;2023-12-22T10:17:05;99847.90;;;27.67;28.12
44313;BME280;38833;51.142;-0.974;2023-12-22T10:19:38;99852.11;;;28.14;28.31
44313;BME280;38833;51.142;-0.974;2023-12-22T10:22:12;99850.72;;;27.63;28.36
44313;BME280;38833;51.142;-0.974;2023-12-22T10:24:46;99845.68;;;27.46;28.70
44313;BME280;38833;51.142;-0.974;2023-12-22T10:27:19;99845.30;;;27.52;28.59
44313;BME280;38833;51.142;-0.974;2023-12-22T10:29:55;99851.68;;;28.10;28.56
44313;BME280;38833;51.142;-0.974;2023-12-22T10:32:28;99857.75;;;27.62;28.57
44313;BME280;38833;51.142;-0.974;2023-12-22T10:35:03;99846.62;;;27.62;28.53
44313;BME280;38833;51.142;-0.974;2023-12-22T10:37:36;99859.35;;;27.59;28.61
44313;BME280;38833;51.142;-0.974;2023-12-22T10:40:12;99859.11;;;27.61;28.59
44313;BME280;38833;51.142;-0.974;2023-12-22T10:42:45;99864.81;;;27.56;28.64
44313;BME280;38833;51.142;-0.974;2023-12-22T10:45:20;99854.44;;;28.01;28.68
44313;BME280;38833;51.142;-0.974;2023-12-22T10:47:54;99864.57;;;27.83;28.62
44313;BME280;38833;51.142;-0.974;2023-12-22T10:50:28;99851.30;;;27.77;28.65
44313;BME280;38833;51.142;-0.974;2023-12-22T10:53:02;99854.83;;;27.47;28.62
44313;BME280;38833;51.142;-0.974;2023-12-22T10:55:39;99856.15;;;27.92;28.61
44313;BME280;38833;51.142;-0.974;2023-12-22T10:58:12;99860.64;;;27.58;28.71
44313;BME280;38833;51.142;-0.974;2023-12-22T11:00:46;99856.65;;;27.78;28.68
44313;BME280;38833;51.142;-0.974;2023-12-22T11:03:24;99863.72;;;27.88;28.66
44313;BME280;38833;51.142;-0.974;2023-12-22T11:06:05;99870.68;;;27.86;28.75
44313;BME280;38833;51.142;-0.974;2023-12-22T11:08:40;99860.79;;;27.52;28.97
44313;BME280;38833;51.142;-0.974;2023-12-22T11:11:20;99868.05;;;27.72;28.85
44313;BME280;38833;51.142;-0.974;2023-12-22T11:14:00;99868.35;;;27.82;29.13
44313;BME280;38833;51.142;-0.974;2023-12-22T11:16:34;99872.20;;;27.25;29.33
44313;BME280;38833;51.142;-0.974;2023-12-22T11:19:09;99883.15;;;27.12;29.53
44313;BME280;38833;51.142;-0.974;2023-12-22T11:21:43;99871.03;;;27.67;29.41
44313;BME280;38833;51.142;-0.974;2023-12-22T11:24:18;99871.45;;;27.43;29.61
44313;BME280;38833;51.142;-0.974;2023-12-22T11:26:54;99876.31;;;27.59;29.29
44313;BME280;38833;51.142;-0.974;2023-12-22T11:29:32;99875.31;;;27.66;29.20
44313;BME280;38833;51.142;-0.974;2023-12-22T11:32:07;99869.69;;;27.26;29.38
44313;BME280;38833;51.142;-0.974;2023-12-22T11:34:43;99879.10;;;27.42;29.18
44313;BME280;38833;51.142;-0.974;2023-12-22T11:37:16;99876.68;;;27.36;29.38
44313;BME280;38833;51.142;-0.974;2023-12-22T11:39:50;99871.89;;;27.64;29.45
44313;BME280;38833;51.142;-0.974;2023-12-22T11:42:25;99864.19;;;27.28;29.48
44313;BME280;38833;51.142;-0.974;2023-12-22T11:45:00;99861.93;;;27.77;29.38
44313;BME280;38833;51.142;-0.974;2023-12-22T11:47:33;99859.75;;;27.30;29.45
44313;BME280;38833;51.142;-0.974;2023-12-22T11:50:09;99866.91;;;27.48;29.38
44313;BME280;38833;51.142;-0.974;2023-12-22T11:52:42;99866.25;;;27.67;29.32
44313;BME280;38833;51.142;-0.974;2023-12-22T11:55:16;99869.00;;;27.91;29.34
44313;BME280;38833;51.142;-0.974;2023-12-22T11:57:49;99875.85;;;27.44;29.39
44313;BME280;38833;51.142;-0.974;2023-12-22T12:00:38;99879.20;;;27.89;29.41
44313;BME280;38833;51.142;-0.974;2023-12-22T12:03:12;99873.66;;;27.66;29.43
44313;BME280;38833;51.142;-0.974;2023-12-22T12:05:46;99877.17;;;28.11;29.43
44313;BME280;38833;51.142;-0.974;2023-12-22T12:08:29;99877.77;;;27.49;29.47
44313;BME280;38833;51.142;-0.974;2023-12-22T12:11:03;99877.27;;;27.69;29.27
44313;BME280;38833;51.142;-0.974;2023-12-22T12:13:42;99861.81;;;27.70;29.39
44313;BME280;38833;51.142;-0.974;2023-12-22T12:16:19;99859.79;;;27.53;29.15
44313;BME280;38833;51.142;-0.974;2023-12-22T12:18:52;99856.75;;;27.63;28.97
44313;BME280;38833;51.142;-0.974;2023-12-22T12:21:31;99843.36;;;27.74;28.80
44313;BME280;38833;51.142;-0.974;2023-12-22T12:24:06;99848.88;;;27.74;28.77
44313;BME280;38833;51.142;-0.974;2023-12-22T12:26:40;99841.85;;;27.68;28.74
44313;BME280;38833;51.142;-0.974;2023-12-22T12:29:13;99840.87;;;27.82;28.59
44313;BME280;38833;51.142;-0.974;2023-12-22T12:31:51;99831.35;;;27.55;28.55
44313;BME280;38833;51.142;-0.974;2023-12-22T12:34:25;99826.76;;;28.03;28.55
44313;BME280;38833;51.142;-0.974;2023-12-22T12:37:00;99834.14;;;27.86;28.39
44313;BME280;38833;51.142;-0.974;2023-12-22T12:39:35;99838.11;;;28.11;28.39
44313;BME280;38833;51.142;-0.974;2023-12-22T12:42:11;99847.18;;;28.18;28.33
44313;BME280;38833;51.142;-0.974;2023-12-22T12:44:49;99849.90;;;27.84;28.35
44313;BME280;38833;51.142;-0.974;2023-12-22T12:47:25;99853.43;;;27.96;28.49
44313;BME280;38833;51.142;-0.974;2023-12-22T12:49:59;99850.65;;;27.48;28.65
44313;BME280;38833;51.142;-0.974;2023-12-22T12:52:33;99853.82;;;27.70;28.47
44313;BME280;38833;51.142;-0.974;2023-12-22T12:55:07;99867.67;;;28.11;28.29
44313;BME280;38833;51.142;-0.974;2023-12-22T12:57:40;99866.37;;;28.08;28.28
44313;BME280;38833;51.142;-0.974;2023-12-22T13:00:15;99862.62;;;27.76;28.30
44313;BME280;38833;51.142;-0.974;2023-12-22T13:02:48;99861.08;;;27.70;28.30
44313;BME280;38833;51.142;-0.974;2023-12-22T13:05:23;99858.68;;;27.72;28.25
44313;BME280;38833;51.142;-0.974;2023-12-22T13:08:07;99858.85;;;27.65;28.26
44313;BME280;38833;51.142;-0.974;2023-12-22T13:10:41;99874.57;;;27.67;28.23
44313;BME280;38833;51.142;-0.974;2023-12-22T13:13:14;99868.67;;;27.54;28.33
44313;BME280;38833;51.142;-0.974;2023-12-22T13:15:48;99867.44;;;27.47;28.31
44313;BME280;38833;51.142;-0.974;2023-12-22T13:18:22;99869.30;;;27.20;28.76
44313;BME280;38833;51.142;-0.974;2023-12-22T13:20:55;99853.14;;;27.80;28.62
44313;BME280;38833;51.142;-0.974;2023-12-22T13:23:28;99856.84;;;27.41;28.50
44313;BME280;38833;51.142;-0.974;2023-12-22T13:26:02;99855.63;;;27.37;28.56
44313;BME280;38833;51.142;-0.974;2023-12-22T13:28:35;99854.23;;;27.38;28.47
44313;BME280;38833;51.142;-0.974;2023-12-22T13:31:10;99852.22;;;27.43;28.40
44313;BME280;38833;51.142;-0.974;2023-12-22T13:33:45;99854.71;;;27.56;29.20
44313;BME280;38833;51.142;-0.974;2023-12-22T13:36:18;99855.16;;;27.45;29.44
44313;BME280;38833;51.142;-0.974;2023-12-22T13:38:52;99845.87;;;27.61;29.57